Terminal Aerodrome Forecast
Issued by NWS

Home | Current Version | Previous Version | Text Only | Print | Product List | Glossary On
Versions: 1 2 3 4 5 6 7 8 9 10 11 12 13 14 15
000
FTUS43 KICT 180500
TAFSLN
TAF
KSLN 180522Z 1806/1906 17006KT 5SM HZ SKC
     FM181400 18010KT P6SM SKC
     FM181700 18016G23KT P6SM SCT035=

USA.gov is the U.S. government's official web portal to all federal, state and local government web resources and services.